Time;durP1;ratioP1;P1;durP2;ratioP2;P2;SDS_P1;SDS_P2;PMS_P1;PMS_P2;Temp;Humidity;BMP_temperature;BMP_pressure;BME280_temperature;BME280_humidity;BME280_pressure;Samples;Min_cycle;Max_cycle;Signal;HPM_P1;HPM_P2
2024/01/11 00:02:21;;;;;;;28.60;13.60;;;-7.00;99.90;;;;;;5239281;28;20689;-50
2024/01/11 00:04:52;;;;;;;28.77;13.93;;;-7.00;99.90;;;;;;5239367;28;20647;-49
2024/01/11 00:07:22;;;;;;;24.47;12.97;;;-7.10;99.90;;;;;;5235035;28;20206;-50
2024/01/11 00:09:53;;;;;;;24.33;9.77;;;-7.10;99.90;;;;;;5236010;28;20281;-49
2024/01/11 00:12:24;;;;;;;23.20;11.53;;;-7.10;99.90;;;;;;5238557;28;20266;-51
2024/01/11 00:14:54;;;;;;;24.03;11.30;;;-7.10;99.90;;;;;;5232926;28;20202;-48
2024/01/11 00:17:25;;;;;;;18.67;9.37;;;-7.00;99.90;;;;;;5237010;28;20206;-50
2024/01/11 00:19:55;;;;;;;15.83;9.07;;;-6.90;99.90;;;;;;5244004;28;20657;-49
2024/01/11 00:22:26;;;;;;;10.60;6.50;;;-6.90;99.90;;;;;;5239999;28;20206;-49
2024/01/11 00:24:57;;;;;;;19.20;7.43;;;-6.90;99.90;;;;;;5235582;28;20294;-49
2024/01/11 00:27:27;;;;;;;15.03;7.17;;;-6.90;99.90;;;;;;5239079;28;20597;-48
2024/01/11 00:29:58;;;;;;;19.90;8.10;;;-6.90;99.90;;;;;;5242166;28;20190;-48
2024/01/11 00:32:28;;;;;;;9.83;7.67;;;-6.90;99.90;;;;;;5238971;28;20193;-50
2024/01/11 00:34:59;;;;;;;18.63;7.63;;;-6.80;99.90;;;;;;5240739;28;20211;-50
2024/01/11 00:37:29;;;;;;;16.33;8.63;;;-6.90;99.90;;;;;;5237781;28;23604;-51
2024/01/11 00:40:00;;;;;;;23.17;9.33;;;-6.80;99.90;;;;;;5243170;28;20190;-50
2024/01/11 00:42:31;;;;;;;15.33;8.27;;;-6.80;99.90;;;;;;5241312;28;20178;-49
2024/01/11 00:45:01;;;;;;;16.57;9.23;;;-6.60;99.90;;;;;;5234383;28;20207;-50
2024/01/11 00:47:32;;;;;;;27.27;9.17;;;-6.60;99.90;;;;;;5239368;28;20206;-50
2024/01/11 00:50:03;;;;;;;13.27;7.60;;;-6.70;99.90;;;;;;5243487;28;20642;-49
2024/01/11 00:52:33;;;;;;;14.80;7.60;;;-6.70;99.90;;;;;;5238042;28;20198;-49
2024/01/11 00:55:04;;;;;;;14.60;8.00;;;-6.70;99.90;;;;;;5242555;28;20214;-50
2024/01/11 00:57:35;;;;;;;22.00;8.00;;;-6.80;99.90;;;;;;5241043;28;20251;-48
2024/01/11 01:00:06;;;;;;;12.03;6.90;;;-6.60;99.90;;;;;;5234658;28;20999;-48
2024/01/11 01:02:37;;;;;;;15.13;7.50;;;-6.70;99.90;;;;;;5237745;28;20236;-52
2024/01/11 01:05:08;;;;;;;15.27;7.27;;;-6.60;99.90;;;;;;5237689;28;20929;-49
2024/01/11 01:07:39;;;;;;;16.53;8.37;;;-6.50;99.90;;;;;;5237059;28;20206;-49
2024/01/11 01:10:09;;;;;;;16.37;7.10;;;-6.40;99.90;;;;;;5240939;28;20943;-50
2024/01/11 01:12:40;;;;;;;13.70;7.47;;;-6.40;99.90;;;;;;5235878;28;20182;-52
2024/01/11 01:15:10;;;;;;;13.50;7.50;;;-6.40;99.90;;;;;;5231085;28;20629;-50
2024/01/11 01:17:41;;;;;;;13.77;6.93;;;-6.40;99.90;;;;;;5240698;28;20203;-50
2024/01/11 01:20:12;;;;;;;12.70;7.27;;;-6.50;99.90;;;;;;5235725;28;20244;-52
2024/01/11 01:22:42;;;;;;;18.73;7.30;;;-6.50;99.90;;;;;;5233067;28;20181;-52
2024/01/11 01:25:13;;;;;;;15.73;7.10;;;-6.40;99.90;;;;;;5229853;28;20199;-48
2024/01/11 01:27:43;;;;;;;12.10;7.03;;;-6.50;99.90;;;;;;5241808;28;20241;-49
2024/01/11 01:30:14;;;;;;;14.00;7.33;;;-6.40;99.90;;;;;;5233005;28;20186;-50
2024/01/11 01:32:45;;;;;;;15.30;7.40;;;-6.40;99.90;;;;;;5239326;28;20293;-51
2024/01/11 01:35:16;;;;;;;22.10;7.90;;;-6.30;99.90;;;;;;5237366;28;20202;-50
2024/01/11 01:37:46;;;;;;;13.83;7.40;;;-6.30;99.90;;;;;;5236327;28;20218;-50
2024/01/11 01:40:17;;;;;;;13.67;6.90;;;-6.30;99.90;;;;;;5234402;28;20479;-51
2024/01/11 01:42:48;;;;;;;15.33;7.80;;;-6.40;99.90;;;;;;5234682;28;20653;-50
2024/01/11 01:45:19;;;;;;;18.10;9.17;;;-6.40;99.90;;;;;;5242973;28;20190;-49
2024/01/11 01:47:50;;;;;;;17.33;7.60;;;-6.30;99.90;;;;;;5237663;28;20826;-51
2024/01/11 01:50:21;;;;;;;22.87;8.13;;;-6.30;99.90;;;;;;5236548;28;20178;-50
2024/01/11 01:52:52;;;;;;;22.77;9.20;;;-6.20;99.90;;;;;;5235150;28;20748;-51
2024/01/11 01:55:23;;;;;;;19.37;9.57;;;-6.30;99.90;;;;;;5239073;28;20467;-49
2024/01/11 01:57:55;;;;;;;17.93;9.00;;;-6.30;99.90;;;;;;5236903;28;20425;-50
2024/01/11 02:00:26;;;;;;;23.50;10.10;;;-6.40;99.90;;;;;;5230741;28;20433;-50
2024/01/11 02:02:58;;;;;;;21.83;8.90;;;-6.40;99.90;;;;;;5240168;28;20498;-51
2024/01/11 02:05:29;;;;;;;18.13;9.27;;;-6.40;99.90;;;;;;5243618;28;20447;-50
2024/01/11 02:08:03;;;;;;;22.37;10.57;;;-6.50;99.90;;;;;;5234035;28;20457;-49
2024/01/11 02:10:35;;;;;;;18.70;8.90;;;-6.40;99.90;;;;;;5238463;28;20188;-49
2024/01/11 02:13:06;;;;;;;27.33;10.90;;;-6.40;99.90;;;;;;5239468;28;20494;-49
2024/01/11 02:15:36;;;;;;;24.00;10.17;;;-6.30;99.90;;;;;;5236273;28;20477;-50
2024/01/11 02:18:07;;;;;;;19.80;9.13;;;-6.30;99.90;;;;;;5231275;28;20202;-50
2024/01/11 02:20:38;;;;;;;25.97;9.40;;;-6.30;99.90;;;;;;5230866;28;20224;-51
2024/01/11 02:23:14;;;;;;;18.27;9.27;;;-6.20;99.90;;;;;;5233528;28;20665;-49
2024/01/11 02:25:45;;;;;;;25.17;10.90;;;-6.20;99.90;;;;;;5232990;28;20236;-51
2024/01/11 02:28:15;;;;;;;24.47;10.30;;;-6.10;99.90;;;;;;5242379;28;20514;-49
2024/01/11 02:30:46;;;;;;;18.67;9.37;;;-6.10;99.90;;;;;;5241694;28;20182;-49
2024/01/11 02:33:18;;;;;;;21.83;11.03;;;-6.00;99.90;;;;;;5242675;28;20174;-49
2024/01/11 02:35:49;;;;;;;18.27;9.07;;;-5.90;99.90;;;;;;5235877;28;20186;-48
2024/01/11 02:38:20;;;;;;;19.73;8.70;;;-5.90;99.90;;;;;;5231545;28;20991;-48
2024/01/11 02:40:51;;;;;;;18.43;9.40;;;-5.80;99.90;;;;;;5239805;28;20167;-49
2024/01/11 02:43:21;;;;;;;20.90;8.70;;;-5.70;99.90;;;;;;5242857;28;20429;-50
2024/01/11 02:45:58;;;;;;;16.90;8.20;;;-5.70;99.90;;;;;;5242900;28;20440;-48
2024/01/11 02:48:29;;;;;;;26.80;8.50;;;-5.60;99.90;;;;;;5244407;28;20197;-50
2024/01/11 02:51:00;;;;;;;17.37;9.90;;;-5.60;99.90;;;;;;5244035;28;20933;-50
2024/01/11 02:53:34;;;;;;;23.37;9.77;;;-5.60;99.90;;;;;;5242898;28;20447;-49
2024/01/11 02:56:04;;;;;;;17.60;7.60;;;-5.60;99.90;;;;;;5246587;28;20269;-50
2024/01/11 02:58:35;;;;;;;12.83;6.83;;;-5.60;99.90;;;;;;5237134;28;20558;-49
2024/01/11 03:01:06;;;;;;;14.53;7.60;;;-5.60;99.90;;;;;;5237322;28;20186;-49
2024/01/11 03:03:36;;;;;;;14.00;7.50;;;-5.60;99.90;;;;;;5242415;28;20553;-49
2024/01/11 03:06:07;;;;;;;14.67;8.23;;;-5.50;99.90;;;;;;5239462;28;20701;-49
2024/01/11 03:08:37;;;;;;;14.73;7.40;;;-5.60;99.90;;;;;;5234618;28;20202;-51
2024/01/11 03:11:08;;;;;;;20.93;10.10;;;-5.50;99.90;;;;;;5247599;28;20190;-50
2024/01/11 03:13:39;;;;;;;15.53;7.83;;;-5.70;99.90;;;;;;5245202;28;20690;-50
2024/01/11 03:16:10;;;;;;;24.60;8.53;;;-5.60;99.90;;;;;;5240701;28;20179;-51
2024/01/11 03:18:40;;;;;;;16.47;9.10;;;-5.60;99.90;;;;;;5235992;28;20461;-49
2024/01/11 03:21:11;;;;;;;24.63;11.47;;;-5.50;99.90;;;;;;5238544;28;20228;-51
2024/01/11 03:23:42;;;;;;;26.07;10.93;;;-5.50;99.90;;;;;;5244511;28;20240;-49
2024/01/11 03:26:18;;;;;;;27.47;11.23;;;-5.50;99.90;;;;;;5240468;28;20190;-49
2024/01/11 03:28:49;;;;;;;30.07;10.20;;;-5.60;99.90;;;;;;5239167;28;20236;-50
2024/01/11 03:31:20;;;;;;;21.60;9.43;;;-5.60;99.90;;;;;;5237607;28;20971;-48
2024/01/11 03:33:50;;;;;;;20.03;9.43;;;-5.60;99.90;;;;;;5237098;28;20198;-52
2024/01/11 03:36:24;;;;;;;19.63;9.47;;;-5.60;99.90;;;;;;5235526;28;20624;-49
2024/01/11 03:38:55;;;;;;;16.53;8.63;;;-5.60;99.90;;;;;;5238783;28;20334;-49
2024/01/11 03:41:25;;;;;;;16.70;9.37;;;-5.50;99.90;;;;;;5246576;28;20424;-50
2024/01/11 03:43:56;;;;;;;20.77;9.43;;;-5.50;99.90;;;;;;5241705;28;20179;-51
2024/01/11 03:46:27;;;;;;;18.30;8.50;;;-5.50;99.90;;;;;;5244391;28;20519;-49
2024/01/11 03:48:59;;;;;;;15.80;8.20;;;-5.50;99.90;;;;;;5233582;28;20221;-50
2024/01/11 03:51:30;;;;;;;19.60;8.23;;;-5.50;99.90;;;;;;5244182;28;20186;-49
2024/01/11 03:54:00;;;;;;;15.87;7.70;;;-5.50;99.90;;;;;;5240629;28;20480;-48
2024/01/11 03:56:31;;;;;;;15.63;7.97;;;-5.50;99.90;;;;;;5235472;28;20228;-49
2024/01/11 03:59:02;;;;;;;17.93;8.63;;;-5.50;99.90;;;;;;5241969;28;20226;-50
2024/01/11 04:01:33;;;;;;;19.83;8.40;;;-5.50;99.90;;;;;;5240240;28;20183;-50
2024/01/11 04:04:03;;;;;;;20.43;8.43;;;-5.40;99.90;;;;;;5234489;28;20223;-50
2024/01/11 04:06:34;;;;;;;22.83;8.87;;;-5.40;99.90;;;;;;5239622;28;20437;-50
2024/01/11 04:09:05;;;;;;;16.83;8.50;;;-5.40;99.90;;;;;;5232028;28;20201;-51
2024/01/11 04:11:35;;;;;;;22.10;8.70;;;-5.30;99.90;;;;;;5235190;28;20313;-52
2024/01/11 04:14:06;;;;;;;17.77;7.77;;;-5.30;99.90;;;;;;5236046;28;20217;-50
2024/01/11 04:16:41;;;;;;;14.13;7.10;;;-5.20;99.90;;;;;;5237488;28;20183;-49
2024/01/11 04:19:12;;;;;;;22.30;8.80;;;-5.30;99.90;;;;;;5238026;28;20671;-48
2024/01/11 04:21:43;;;;;;;16.20;8.50;;;-5.20;99.90;;;;;;5226145;28;20427;-50
2024/01/11 04:24:13;;;;;;;15.83;7.63;;;-5.20;99.90;;;;;;5237629;28;20448;-50
2024/01/11 04:26:44;;;;;;;20.57;8.30;;;-5.10;99.90;;;;;;5233001;28;20931;-49
2024/01/11 04:29:14;;;;;;;19.17;8.50;;;-5.10;99.90;;;;;;5235395;28;20194;-50
2024/01/11 04:31:45;;;;;;;16.63;8.60;;;-5.10;99.90;;;;;;5240820;28;20269;-48
2024/01/11 04:34:16;;;;;;;22.00;8.97;;;-5.10;99.90;;;;;;5241286;28;20216;-50
2024/01/11 04:36:46;;;;;;;18.67;9.13;;;-5.10;99.90;;;;;;5239453;28;20517;-51
2024/01/11 04:39:17;;;;;;;26.27;9.50;;;-5.00;99.90;;;;;;5236208;28;20269;-50
2024/01/11 04:41:47;;;;;;;24.40;9.60;;;-5.10;99.90;;;;;;5228782;28;20221;-49
2024/01/11 04:44:18;;;;;;;20.83;9.43;;;-5.10;99.90;;;;;;5236663;28;20570;-48
2024/01/11 04:46:49;;;;;;;23.17;9.93;;;-5.10;99.90;;;;;;5238847;28;20580;-50
2024/01/11 04:49:19;;;;;;;20.37;9.77;;;-5.10;99.90;;;;;;5240174;28;20254;-48
2024/01/11 04:51:50;;;;;;;24.80;9.77;;;-5.00;99.90;;;;;;5240087;28;20547;-50
2024/01/11 04:54:21;;;;;;;20.27;9.20;;;-5.00;99.90;;;;;;5241065;28;20229;-50
2024/01/11 04:56:51;;;;;;;34.43;9.43;;;-4.90;99.90;;;;;;5243615;28;20178;-49
2024/01/11 04:59:22;;;;;;;25.30;10.87;;;-4.80;99.90;;;;;;5239420;28;20187;-50
2024/01/11 05:01:52;;;;;;;21.67;8.87;;;-4.80;99.90;;;;;;5237881;28;20187;-50
2024/01/11 05:04:23;;;;;;;27.33;10.17;;;-4.70;99.90;;;;;;5240442;28;20186;-49
2024/01/11 05:06:54;;;;;;;20.63;9.63;;;-4.70;99.90;;;;;;5244375;28;20249;-52
2024/01/11 05:09:24;;;;;;;23.60;10.33;;;-4.70;99.90;;;;;;5236144;28;20175;-50
2024/01/11 05:11:55;;;;;;;22.43;10.37;;;-4.70;99.90;;;;;;5236760;28;20723;-51
2024/01/11 05:14:25;;;;;;;22.23;9.40;;;-4.60;99.90;;;;;;5240909;28;20208;-49
2024/01/11 05:16:56;;;;;;;24.37;9.80;;;-4.60;99.90;;;;;;5237414;28;20709;-48
2024/01/11 05:19:27;;;;;;;25.97;10.30;;;-4.60;99.90;;;;;;5239571;28;20239;-49
2024/01/11 05:21:58;;;;;;;26.37;11.10;;;-4.50;99.90;;;;;;5241784;28;20952;-48
2024/01/11 05:24:29;;;;;;;26.30;9.60;;;-4.40;99.90;;;;;;5234618;28;20713;-49
2024/01/11 05:26:59;;;;;;;28.70;11.80;;;-4.40;99.90;;;;;;5236593;28;20435;-49
2024/01/11 05:29:30;;;;;;;22.67;9.47;;;-4.40;99.90;;;;;;5237400;28;20182;-49
2024/01/11 05:32:01;;;;;;;27.53;11.70;;;-4.40;99.90;;;;;;5231607;28;20188;-48
2024/01/11 05:34:31;;;;;;;22.30;9.50;;;-4.40;99.90;;;;;;5237791;28;20248;-49
2024/01/11 05:37:02;;;;;;;27.00;11.43;;;-4.40;99.90;;;;;;5238629;28;20210;-48
2024/01/11 05:39:32;;;;;;;30.07;10.37;;;-4.30;99.90;;;;;;5231519;28;20643;-49
2024/01/11 05:42:03;;;;;;;32.70;12.00;;;-4.30;99.90;;;;;;5234646;28;20198;-50
2024/01/11 05:44:34;;;;;;;34.33;12.17;;;-4.30;99.90;;;;;;5238250;28;20184;-49
2024/01/11 05:47:04;;;;;;;38.30;11.73;;;-4.20;99.90;;;;;;5229976;28;20302;-49
2024/01/11 05:49:35;;;;;;;45.63;13.00;;;-4.10;99.90;;;;;;5238001;28;20186;-50
2024/01/11 05:52:06;;;;;;;30.20;11.83;;;-4.10;99.90;;;;;;5240416;28;20190;-49
2024/01/11 05:54:37;;;;;;;29.10;11.50;;;-4.10;99.90;;;;;;5237958;28;20591;-49
2024/01/11 05:57:07;;;;;;;31.07;12.30;;;-4.10;99.90;;;;;;5233985;28;20289;-49
2024/01/11 05:59:42;;;;;;;28.00;12.57;;;-4.10;99.90;;;;;;5231617;28;20583;-51
2024/01/11 06:02:13;;;;;;;37.37;14.50;;;-4.10;99.90;;;;;;5232112;28;20252;-49
2024/01/11 06:04:44;;;;;;;44.53;13.73;;;-4.10;99.90;;;;;;5236982;28;20447;-48
2024/01/11 06:07:15;;;;;;;40.40;13.70;;;-4.10;99.90;;;;;;5234473;28;20688;-48
2024/01/11 06:09:46;;;;;;;32.80;13.20;;;-4.10;99.90;;;;;;5240442;28;20175;-49
2024/01/11 06:12:17;;;;;;;41.67;14.03;;;-3.90;99.90;;;;;;5233119;28;20496;-49
2024/01/11 06:14:47;;;;;;;26.67;12.70;;;-3.90;99.90;;;;;;5237864;28;20234;-48
2024/01/11 06:17:18;;;;;;;34.70;12.90;;;-3.90;99.90;;;;;;5238249;28;20453;-50
2024/01/11 06:19:49;;;;;;;41.10;13.30;;;-3.80;99.90;;;;;;5236362;28;20185;-50
2024/01/11 06:22:19;;;;;;;36.00;12.80;;;-3.80;99.90;;;;;;5234147;28;20233;-51
2024/01/11 06:24:50;;;;;;;37.20;13.87;;;-3.80;99.90;;;;;;5239704;28;20234;-49
2024/01/11 06:27:21;;;;;;;28.47;12.40;;;-3.80;99.90;;;;;;5237604;28;20201;-50
2024/01/11 06:29:51;;;;;;;39.00;13.10;;;-3.70;99.90;;;;;;5239929;28;20179;-51
2024/01/11 06:32:22;;;;;;;42.40;14.53;;;-3.70;99.90;;;;;;5238496;28;20184;-49
2024/01/11 06:34:53;;;;;;;40.67;15.30;;;-3.70;99.90;;;;;;5237264;28;20277;-50
2024/01/11 06:37:23;;;;;;;39.23;14.33;;;-3.70;99.90;;;;;;5238833;28;20280;-48
2024/01/11 06:39:54;;;;;;;39.10;13.77;;;-3.60;99.90;;;;;;5237120;28;20445;-49
2024/01/11 06:42:24;;;;;;;34.60;14.07;;;-3.60;99.90;;;;;;5252929;28;20197;-51
2024/01/11 06:44:55;;;;;;;47.53;16.33;;;-3.60;99.90;;;;;;5226694;28;20305;-51
2024/01/11 06:47:26;;;;;;;37.40;14.27;;;-3.50;99.90;;;;;;5232931;28;20200;-50
2024/01/11 06:49:56;;;;;;;36.53;13.67;;;-3.50;99.90;;;;;;5238825;28;20276;-49
2024/01/11 06:52:27;;;;;;;45.23;16.40;;;-3.50;99.90;;;;;;5243137;28;20745;-50
2024/01/11 06:54:57;;;;;;;38.27;14.60;;;-3.50;99.90;;;;;;5230650;28;20260;-49
2024/01/11 06:57:28;;;;;;;47.23;15.90;;;-3.40;99.90;;;;;;5216495;28;20288;-50
2024/01/11 06:59:59;;;;;;;41.73;15.50;;;-3.30;99.90;;;;;;5241138;28;20319;-51
2024/01/11 07:02:29;;;;;;;47.30;16.40;;;-3.30;99.90;;;;;;5229946;28;20212;-49
2024/01/11 07:05:00;;;;;;;41.23;14.20;;;-3.30;99.90;;;;;;5233462;28;20195;-50
2024/01/11 07:07:30;;;;;;;48.23;15.83;;;-3.30;99.90;;;;;;5239510;28;20561;-51
2024/01/11 07:10:01;;;;;;;42.00;15.17;;;-3.30;99.90;;;;;;5235786;28;20267;-51
2024/01/11 07:12:32;;;;;;;40.53;13.83;;;-3.30;99.90;;;;;;5241243;28;20928;-51
2024/01/11 07:15:04;;;;;;;42.97;14.93;;;-3.30;99.90;;;;;;5246229;28;20260;-49
2024/01/11 07:17:35;;;;;;;58.40;19.63;;;-3.30;99.90;;;;;;5225571;28;20492;-49
2024/01/11 07:20:07;;;;;;;39.30;16.37;;;-3.20;99.90;;;;;;5239252;28;20491;-52
2024/01/11 07:22:38;;;;;;;46.90;17.40;;;-3.20;99.90;;;;;;5233304;28;20171;-51
2024/01/11 07:25:09;;;;;;;51.80;16.97;;;-3.20;99.90;;;;;;5241838;28;20447;-51
2024/01/11 07:27:40;;;;;;;45.70;15.20;;;-3.30;99.90;;;;;;5244250;28;20209;-50
2024/01/11 07:30:11;;;;;;;61.40;16.70;;;-3.20;99.90;;;;;;5236462;28;20784;-49
2024/01/11 07:32:42;;;;;;;48.10;18.90;;;-3.20;99.90;;;;;;5243292;28;20239;-52
2024/01/11 07:35:14;;;;;;;37.93;16.30;;;-3.10;99.90;;;;;;5240221;28;20804;-51
2024/01/11 07:37:44;;;;;;;49.33;17.30;;;-3.10;99.90;;;;;;5242437;28;20460;-51
2024/01/11 07:40:16;;;;;;;62.63;18.83;;;-3.20;99.90;;;;;;5245642;28;20856;-49
2024/01/11 07:42:47;;;;;;;52.87;18.23;;;-2.90;99.90;;;;;;5244110;28;20265;-51
2024/01/11 07:45:18;;;;;;;53.53;19.70;;;-3.00;99.90;;;;;;5246385;28;21035;-53
2024/01/11 07:47:49;;;;;;;52.10;18.90;;;-3.00;99.90;;;;;;5234119;28;20225;-50
2024/01/11 07:50:20;;;;;;;48.40;19.40;;;-2.90;99.90;;;;;;5237041;28;20437;-48
2024/01/11 07:52:50;;;;;;;43.13;17.57;;;-2.90;99.90;;;;;;5240824;28;20200;-49
2024/01/11 07:55:23;;;;;;;46.30;15.77;;;-2.80;99.90;;;;;;5233329;28;20563;-51
2024/01/11 07:57:54;;;;;;;47.90;17.87;;;-2.80;99.90;;;;;;5226538;28;20205;-51
2024/01/11 08:00:25;;;;;;;47.30;17.57;;;-2.70;99.90;;;;;;5239126;28;20438;-49
2024/01/11 08:02:55;;;;;;;46.93;18.60;;;-2.60;99.90;;;;;;5237844;28;20197;-48
2024/01/11 08:05:26;;;;;;;41.13;16.97;;;-2.60;99.90;;;;;;5242351;28;20179;-50
2024/01/11 08:08:01;;;;;;;54.43;17.67;;;-2.70;99.90;;;;;;5238119;28;20653;-50
2024/01/11 08:10:32;;;;;;;48.87;17.80;;;-2.60;99.90;;;;;;5238908;28;20181;-50
2024/01/11 08:13:03;;;;;;;59.83;17.17;;;-2.60;99.90;;;;;;5239431;28;20454;-52
2024/01/11 08:15:34;;;;;;;58.73;16.80;;;-2.60;99.90;;;;;;5245017;28;20202;-49
2024/01/11 08:18:05;;;;;;;40.37;16.97;;;-2.50;99.90;;;;;;5246215;28;20468;-48
2024/01/11 08:20:35;;;;;;;39.80;17.23;;;-2.60;99.90;;;;;;5239887;28;20174;-50
2024/01/11 08:23:06;;;;;;;42.83;16.70;;;-2.50;99.90;;;;;;5240662;28;20227;-51
2024/01/11 08:25:37;;;;;;;55.50;17.17;;;-2.60;99.90;;;;;;5237931;28;20186;-49
2024/01/11 08:28:07;;;;;;;40.23;17.73;;;-2.50;99.90;;;;;;5240254;28;20453;-48
2024/01/11 08:30:38;;;;;;;44.87;17.47;;;-2.50;99.90;;;;;;5242513;28;20192;-52
2024/01/11 08:33:09;;;;;;;42.60;17.83;;;-2.50;99.90;;;;;;5245117;28;20194;-49
2024/01/11 08:35:40;;;;;;;43.90;17.63;;;-2.50;99.90;;;;;;5240741;28;20210;-48
2024/01/11 08:38:11;;;;;;;45.03;17.97;;;-2.40;99.90;;;;;;5240037;28;20214;-47
2024/01/11 08:40:42;;;;;;;42.30;16.37;;;-2.30;99.90;;;;;;5236656;28;20459;-49
2024/01/11 08:43:13;;;;;;;44.70;17.17;;;-2.30;99.90;;;;;;5238974;28;20447;-48
2024/01/11 08:45:43;;;;;;;62.17;18.83;;;-2.30;99.90;;;;;;5239561;28;20193;-48
2024/01/11 08:48:14;;;;;;;48.00;17.07;;;-2.30;99.90;;;;;;5244376;28;20217;-48
2024/01/11 08:50:45;;;;;;;53.80;18.97;;;-2.30;99.90;;;;;;5225146;28;20186;-50
2024/01/11 08:53:15;;;;;;;42.10;17.87;;;-2.30;99.90;;;;;;5242001;28;20202;-47
2024/01/11 08:55:46;;;;;;;51.70;19.13;;;-2.30;99.90;;;;;;5236130;28;20305;-48
2024/01/11 08:58:17;;;;;;;55.13;19.33;;;-2.30;99.90;;;;;;5235017;28;20194;-50
2024/01/11 09:00:47;;;;;;;47.67;18.70;;;-2.30;99.90;;;;;;5232837;28;20204;-54
2024/01/11 09:03:18;;;;;;;50.47;18.37;;;-2.20;99.90;;;;;;5242947;28;20189;-47
2024/01/11 09:05:48;;;;;;;51.67;18.37;;;-2.10;99.90;;;;;;5239799;28;20222;-47
2024/01/11 09:08:19;;;;;;;50.60;17.03;;;-1.90;99.90;;;;;;5243509;28;20228;-49
2024/01/11 09:10:50;;;;;;;49.53;17.70;;;-1.80;99.90;;;;;;5238371;28;20190;-46
2024/01/11 09:13:20;;;;;;;46.60;18.50;;;-1.70;99.90;;;;;;5236110;28;20643;-48
2024/01/11 09:15:52;;;;;;;42.40;18.60;;;-1.70;99.90;;;;;;5238747;28;20213;-48
2024/01/11 09:18:23;;;;;;;48.20;18.10;;;-1.60;99.90;;;;;;5233936;28;20312;-48
2024/01/11 09:20:53;;;;;;;41.90;16.93;;;-1.50;99.90;;;;;;5224805;28;20515;-49
2024/01/11 09:23:24;;;;;;;48.57;16.87;;;-1.50;99.90;;;;;;5240116;28;20190;-51
2024/01/11 09:25:54;;;;;;;40.80;15.87;;;-1.60;99.90;;;;;;5244360;28;20185;-49
2024/01/11 09:28:25;;;;;;;41.53;17.37;;;-1.60;99.90;;;;;;5241746;28;20198;-47
2024/01/11 09:30:59;;;;;;;45.43;16.57;;;-1.50;99.90;;;;;;5237214;28;20605;-48
2024/01/11 09:33:30;;;;;;;40.10;15.47;;;-1.50;99.90;;;;;;5223356;28;20189;-47
2024/01/11 09:36:00;;;;;;;46.80;16.03;;;-1.50;99.90;;;;;;5232288;28;20984;-49
2024/01/11 09:38:32;;;;;;;53.27;17.77;;;-1.40;99.90;;;;;;5236109;28;21043;-48
2024/01/11 09:41:03;;;;;;;41.80;17.20;;;-1.40;99.90;;;;;;5239854;28;20513;-47
2024/01/11 09:43:34;;;;;;;44.80;17.13;;;-1.40;99.90;;;;;;5241145;28;20432;-49
2024/01/11 09:46:06;;;;;;;42.97;18.53;;;-1.60;99.90;;;;;;5239731;28;20214;-48
2024/01/11 09:48:39;;;;;;;41.33;18.17;;;-1.70;99.90;;;;;;5234827;28;20457;-47
2024/01/11 09:51:13;;;;;;;46.70;19.50;;;-1.70;99.90;;;;;;5228021;28;20425;-50
2024/01/11 09:53:44;;;;;;;54.30;18.60;;;-1.70;99.90;;;;;;5221546;28;20458;-51
2024/01/11 09:56:16;;;;;;;50.97;20.37;;;-1.70;99.90;;;;;;5239774;28;20452;-49
2024/01/11 09:58:50;;;;;;;50.03;18.80;;;-1.70;99.90;;;;;;5244124;28;20487;-48
2024/01/11 10:01:21;;;;;;;47.33;19.70;;;-1.70;99.90;;;;;;5238938;28;20432;-48
2024/01/11 10:03:53;;;;;;;44.30;18.23;;;-1.70;99.90;;;;;;5243712;28;20421;-49
2024/01/11 10:06:26;;;;;;;44.20;17.77;;;-1.60;99.90;;;;;;5233875;28;20535;-50
2024/01/11 10:08:56;;;;;;;39.93;17.60;;;-1.50;99.90;;;;;;5240196;28;20468;-46
2024/01/11 10:11:27;;;;;;;47.60;18.80;;;-1.40;99.90;;;;;;5240070;28;20495;-47
2024/01/11 10:13:59;;;;;;;38.50;18.97;;;-1.30;99.90;;;;;;5236382;28;20639;-49
2024/01/11 10:16:30;;;;;;;39.90;19.10;;;-1.20;99.90;;;;;;5233165;28;20213;-47
2024/01/11 10:19:00;;;;;;;43.13;17.73;;;-1.10;99.90;;;;;;5237975;28;20480;-49
2024/01/11 10:21:31;;;;;;;46.33;18.40;;;-1.10;99.90;;;;;;5244847;28;20269;-49
2024/01/11 10:24:04;;;;;;;39.13;17.67;;;-1.00;99.90;;;;;;5235759;28;20183;-46
2024/01/11 10:26:35;;;;;;;52.30;17.83;;;-1.00;99.90;;;;;;5233926;28;20445;-49
2024/01/11 10:29:10;;;;;;;39.20;17.00;;;-1.00;99.90;;;;;;5244661;28;20468;-50
2024/01/11 10:31:41;;;;;;;41.37;17.93;;;-0.90;99.90;;;;;;5241428;28;20441;-48
2024/01/11 10:34:11;;;;;;;36.90;18.23;;;-0.90;99.90;;;;;;5238623;28;20465;-48
2024/01/11 10:36:42;;;;;;;39.23;18.00;;;-0.90;99.90;;;;;;5243653;28;20197;-48
2024/01/11 10:39:17;;;;;;;41.77;18.40;;;-0.80;99.90;;;;;;5235409;28;20548;-47
2024/01/11 10:41:51;;;;;;;39.00;16.57;;;-0.80;99.90;;;;;;5237905;28;20465;-48
2024/01/11 10:44:22;;;;;;;38.60;17.07;;;-0.80;99.90;;;;;;5240390;28;20438;-49
2024/01/11 10:46:56;;;;;;;34.17;17.27;;;-0.80;99.90;;;;;;5240707;28;20441;-46
2024/01/11 10:49:28;;;;;;;32.83;15.80;;;-0.90;99.90;;;;;;5240840;28;20445;-47
2024/01/11 10:52:01;;;;;;;29.40;16.07;;;-0.90;99.90;;;;;;5238987;28;20772;-47
2024/01/11 10:54:34;;;;;;;41.50;16.77;;;-0.80;99.90;;;;;;5237004;28;20477;-49
2024/01/11 10:57:07;;;;;;;28.30;14.87;;;-0.70;99.90;;;;;;5239677;28;20466;-54
2024/01/11 10:59:39;;;;;;;38.93;16.67;;;-0.60;99.90;;;;;;5242518;28;20517;-50
2024/01/11 11:02:12;;;;;;;35.40;16.80;;;-0.50;99.90;;;;;;5242563;28;20591;-47
2024/01/11 11:04:45;;;;;;;28.47;15.30;;;-0.40;99.90;;;;;;5244909;28;20444;-49
2024/01/11 11:07:16;;;;;;;32.50;15.47;;;-0.40;99.90;;;;;;5242842;28;20472;-47
2024/01/11 11:09:49;;;;;;;32.37;15.93;;;-0.60;99.90;;;;;;5246088;28;20425;-48
2024/01/11 11:12:21;;;;;;;38.20;17.60;;;-0.70;99.90;;;;;;5244036;28;20506;-48
2024/01/11 11:14:54;;;;;;;24.93;15.20;;;-0.70;99.90;;;;;;5243965;28;20470;-48
2024/01/11 11:17:25;;;;;;;28.43;15.13;;;-0.80;99.90;;;;;;5236362;28;20453;-50
2024/01/11 11:19:56;;;;;;;26.73;13.57;;;-0.90;99.90;;;;;;5239678;28;20434;-46
2024/01/11 11:22:27;;;;;;;35.37;17.10;;;-0.90;99.90;;;;;;5239200;28;20185;-48
2024/01/11 11:25:11;;;;;;;29.10;14.10;;;-0.90;99.90;;;;;;5244042;28;20420;-50
2024/01/11 11:27:41;;;;;;;36.57;16.00;;;-0.90;99.90;;;;;;5244598;28;20450;-48
2024/01/11 11:30:12;;;;;;;34.13;17.23;;;-1.00;99.90;;;;;;5237328;28;20424;-47
2024/01/11 11:32:44;;;;;;;33.07;16.90;;;-0.90;99.90;;;;;;5241839;28;20241;-50
2024/01/11 11:35:15;;;;;;;40.00;17.67;;;-0.90;99.90;;;;;;5239991;28;20248;-46
2024/01/11 11:37:46;;;;;;;29.47;16.20;;;-0.90;99.90;;;;;;5240583;28;20491;-47
2024/01/11 11:40:16;;;;;;;29.33;14.80;;;-0.80;99.90;;;;;;5241846;28;20192;-48
2024/01/11 11:42:48;;;;;;;28.73;14.97;;;-0.90;99.90;;;;;;5236456;28;20174;-49
2024/01/11 11:45:26;;;;;;;33.60;15.87;;;-0.90;99.90;;;;;;5241025;28;20187;-48
2024/01/11 11:47:56;;;;;;;33.00;15.80;;;-0.80;99.90;;;;;;5242695;28;20456;-51
2024/01/11 11:50:30;;;;;;;32.50;16.13;;;-0.80;99.90;;;;;;5245107;28;20442;-48
2024/01/11 11:53:01;;;;;;;32.97;14.93;;;-0.70;99.90;;;;;;5245959;28;20273;-48
2024/01/11 11:55:34;;;;;;;31.53;16.57;;;-0.60;99.90;;;;;;5243573;28;20540;-49
2024/01/11 11:58:05;;;;;;;30.20;16.20;;;-0.60;99.90;;;;;;5237876;28;20220;-50
2024/01/11 12:00:36;;;;;;;35.80;16.33;;;-0.70;99.90;;;;;;5238502;28;20429;-48
2024/01/11 12:03:08;;;;;;;28.60;15.20;;;-0.60;99.90;;;;;;5240193;28;20218;-48
2024/01/11 12:05:38;;;;;;;40.97;16.63;;;-0.50;99.90;;;;;;5239876;28;20438;-48
2024/01/11 12:08:09;;;;;;;42.10;17.20;;;-0.50;99.90;;;;;;5242217;28;20466;-47
2024/01/11 12:10:40;;;;;;;30.50;16.07;;;-0.40;99.90;;;;;;5242027;28;20586;-49
2024/01/11 12:13:11;;;;;;;33.40;17.63;;;-0.40;99.90;;;;;;5242794;28;20700;-49
2024/01/11 12:15:42;;;;;;;37.17;17.53;;;-0.40;99.90;;;;;;5237285;28;20256;-49
2024/01/11 12:18:13;;;;;;;40.23;17.43;;;-0.40;99.90;;;;;;5240560;28;20807;-49
2024/01/11 12:20:44;;;;;;;30.93;16.80;;;-0.50;99.90;;;;;;5236342;28;20195;-48
2024/01/11 12:23:15;;;;;;;30.60;15.87;;;-0.40;99.90;;;;;;5237705;28;20187;-47
2024/01/11 12:25:46;;;;;;;34.70;16.13;;;-0.40;99.90;;;;;;5232422;28;20978;-50
2024/01/11 12:28:17;;;;;;;42.53;18.87;;;-0.30;99.90;;;;;;5236790;28;20508;-48
2024/01/11 12:30:48;;;;;;;32.10;16.33;;;-0.40;99.90;;;;;;5232097;28;20427;-49
2024/01/11 12:33:19;;;;;;;41.17;17.70;;;-0.40;99.90;;;;;;5240835;28;20195;-50
2024/01/11 12:35:50;;;;;;;42.60;19.90;;;-0.30;99.90;;;;;;5242845;28;20304;-49
2024/01/11 12:38:21;;;;;;;37.10;16.97;;;-0.30;99.90;;;;;;5230939;28;20487;-50
2024/01/11 12:40:51;;;;;;;37.37;17.23;;;-0.40;99.90;;;;;;5230679;28;20229;-49
2024/01/11 12:43:22;;;;;;;32.70;16.77;;;-0.40;99.90;;;;;;5235927;28;20199;-50
2024/01/11 12:45:53;;;;;;;37.40;17.67;;;-0.30;99.90;;;;;;5242039;28;20371;-48
2024/01/11 12:48:24;;;;;;;32.47;15.90;;;-0.30;99.90;;;;;;5236318;28;20307;-48
2024/01/11 12:50:55;;;;;;;33.93;16.27;;;-0.20;99.90;;;;;;5242321;28;20528;-48